<?xml version="1.0" encoding="UTF-8" standalone="no" ?>
<gpx xmlns="http://www.topografix.com/GPX/1/1" xmlns:xsi="http://www.w3.org/2001/XMLSchema-instance" xsi:schemaLocation="http://www.topografix.com/GPX/1/1 http://www.topografix.com/GPX/1/1/gpx.xsd" version="1.1" creator="VisuGPX - https://www.visugpx.com">
  <metadata>
    <name>Prénovel /la tourbière</name>
    <desc><![CDATA[départ centre du village(eglise) suivre les balisages respecter la flore en restant sur le sentier les explications sont bien faites .Bonne découverte pour d'autre tourbières ]]></desc>
  </metadata>
  <trk>
    <name><![CDATA[6445453-la tourbiere]]></name>
    <trkseg>
      <trkpt lat="46.51086" lon="5.83928">
        <ele>909</ele>
        <time>2018-02-24T10:52:28Z</time>
      </trkpt>
      <trkpt lat="46.51151" lon="5.83984">
        <ele>910</ele>
        <time>2018-02-24T10:53:28Z</time>
      </trkpt>
      <trkpt lat="46.51221" lon="5.83937">
        <ele>915</ele>
        <time>2018-02-24T10:54:28Z</time>
      </trkpt>
      <trkpt lat="46.51289" lon="5.84018">
        <ele>909</ele>
        <time>2018-02-24T10:55:28Z</time>
      </trkpt>
      <trkpt lat="46.51289" lon="5.8413">
        <ele>901</ele>
        <time>2018-02-24T10:56:28Z</time>
      </trkpt>
      <trkpt lat="46.51236" lon="5.8425">
        <ele>901</ele>
        <time>2018-02-24T10:57:28Z</time>
      </trkpt>
      <trkpt lat="46.51183" lon="5.84387">
        <ele>901</ele>
        <time>2018-02-24T10:58:28Z</time>
      </trkpt>
      <trkpt lat="46.51153" lon="5.8452">
        <ele>892</ele>
        <time>2018-02-24T10:59:28Z</time>
      </trkpt>
      <trkpt lat="46.51091" lon="5.84653">
        <ele>885</ele>
        <time>2018-02-24T11:00:28Z</time>
      </trkpt>
      <trkpt lat="46.51174" lon="5.84705">
        <ele>885</ele>
        <time>2018-02-24T11:01:28Z</time>
      </trkpt>
      <trkpt lat="46.51263" lon="5.84718">
        <ele>883</ele>
        <time>2018-02-24T11:02:28Z</time>
      </trkpt>
      <trkpt lat="46.51331" lon="5.84756">
        <ele>883</ele>
        <time>2018-02-24T11:03:28Z</time>
      </trkpt>
      <trkpt lat="46.5149" lon="5.84833">
        <ele>889</ele>
        <time>2018-02-24T11:04:28Z</time>
      </trkpt>
      <trkpt lat="46.51658" lon="5.84962">
        <ele>886</ele>
        <time>2018-02-24T11:05:28Z</time>
      </trkpt>
      <trkpt lat="46.51777" lon="5.85082">
        <ele>885</ele>
        <time>2018-02-24T11:06:28Z</time>
      </trkpt>
      <trkpt lat="46.51865" lon="5.85147">
        <ele>883</ele>
        <time>2018-02-24T11:07:28Z</time>
      </trkpt>
      <trkpt lat="46.51912" lon="5.85314">
        <ele>885</ele>
        <time>2018-02-24T11:08:28Z</time>
      </trkpt>
      <trkpt lat="46.51939" lon="5.8543">
        <ele>883</ele>
        <time>2018-02-24T11:09:28Z</time>
      </trkpt>
      <trkpt lat="46.52007" lon="5.85542">
        <ele>882</ele>
        <time>2018-02-24T11:10:28Z</time>
      </trkpt>
      <trkpt lat="46.52004" lon="5.8558">
        <ele>880</ele>
        <time>2018-02-24T11:11:28Z</time>
      </trkpt>
      <trkpt lat="46.52036" lon="5.85637">
        <ele>882</ele>
        <time>2018-02-24T11:12:28Z</time>
      </trkpt>
      <trkpt lat="46.52024" lon="5.85701">
        <ele>884</ele>
        <time>2018-02-24T11:13:28Z</time>
      </trkpt>
      <trkpt lat="46.5196" lon="5.85679">
        <ele>884</ele>
        <time>2018-02-24T11:14:28Z</time>
      </trkpt>
      <trkpt lat="46.51922" lon="5.85694">
        <ele>885</ele>
        <time>2018-02-24T11:15:28Z</time>
      </trkpt>
      <trkpt lat="46.51904" lon="5.85672">
        <ele>885</ele>
        <time>2018-02-24T11:16:28Z</time>
      </trkpt>
      <trkpt lat="46.51882" lon="5.85649">
        <ele>884</ele>
        <time>2018-02-24T11:17:28Z</time>
      </trkpt>
      <trkpt lat="46.51869" lon="5.85638">
        <ele>884</ele>
        <time>2018-02-24T11:18:28Z</time>
      </trkpt>
      <trkpt lat="46.51857" lon="5.85604">
        <ele>884</ele>
        <time>2018-02-24T11:19:28Z</time>
      </trkpt>
      <trkpt lat="46.51844" lon="5.85601">
        <ele>884</ele>
        <time>2018-02-24T11:20:28Z</time>
      </trkpt>
      <trkpt lat="46.51838" lon="5.85584">
        <ele>883</ele>
        <time>2018-02-24T11:21:28Z</time>
      </trkpt>
      <trkpt lat="46.51824" lon="5.85579">
        <ele>884</ele>
        <time>2018-02-24T11:22:28Z</time>
      </trkpt>
      <trkpt lat="46.51816" lon="5.85553">
        <ele>884</ele>
        <time>2018-02-24T11:23:28Z</time>
      </trkpt>
      <trkpt lat="46.51802" lon="5.85523">
        <ele>885</ele>
        <time>2018-02-24T11:24:28Z</time>
      </trkpt>
      <trkpt lat="46.51808" lon="5.85488">
        <ele>883</ele>
        <time>2018-02-24T11:25:28Z</time>
      </trkpt>
      <trkpt lat="46.51767" lon="5.85446">
        <ele>883</ele>
        <time>2018-02-24T11:26:28Z</time>
      </trkpt>
      <trkpt lat="46.51708" lon="5.85381">
        <ele>886</ele>
        <time>2018-02-24T11:27:28Z</time>
      </trkpt>
      <trkpt lat="46.51627" lon="5.8533">
        <ele>887</ele>
        <time>2018-02-24T11:28:28Z</time>
      </trkpt>
      <trkpt lat="46.51558" lon="5.85283">
        <ele>884</ele>
        <time>2018-02-24T11:29:28Z</time>
      </trkpt>
      <trkpt lat="46.51496" lon="5.85226">
        <ele>884</ele>
        <time>2018-02-24T11:30:28Z</time>
      </trkpt>
      <trkpt lat="46.51439" lon="5.85177">
        <ele>887</ele>
        <time>2018-02-24T11:31:28Z</time>
      </trkpt>
      <trkpt lat="46.514" lon="5.85134">
        <ele>887</ele>
        <time>2018-02-24T11:32:28Z</time>
      </trkpt>
      <trkpt lat="46.51314" lon="5.85067">
        <ele>888</ele>
        <time>2018-02-24T11:33:28Z</time>
      </trkpt>
      <trkpt lat="46.51265" lon="5.8505">
        <ele>889</ele>
        <time>2018-02-24T11:34:28Z</time>
      </trkpt>
      <trkpt lat="46.51152" lon="5.84955">
        <ele>892</ele>
        <time>2018-02-24T11:35:28Z</time>
      </trkpt>
      <trkpt lat="46.51078" lon="5.84899">
        <ele>896</ele>
        <time>2018-02-24T11:36:28Z</time>
      </trkpt>
      <trkpt lat="46.51004" lon="5.84836">
        <ele>903</ele>
        <time>2018-02-24T11:37:28Z</time>
      </trkpt>
      <trkpt lat="46.50957" lon="5.84791">
        <ele>907</ele>
        <time>2018-02-24T11:38:28Z</time>
      </trkpt>
      <trkpt lat="46.50891" lon="5.84877">
        <ele>931</ele>
        <time>2018-02-24T11:39:28Z</time>
      </trkpt>
      <trkpt lat="46.5082" lon="5.84984">
        <ele>965</ele>
        <time>2018-02-24T11:40:28Z</time>
      </trkpt>
      <trkpt lat="46.50792" lon="5.84984">
        <ele>968</ele>
        <time>2018-02-24T11:41:28Z</time>
      </trkpt>
      <trkpt lat="46.50767" lon="5.84935">
        <ele>973</ele>
        <time>2018-02-24T11:42:28Z</time>
      </trkpt>
      <trkpt lat="46.50785" lon="5.8485">
        <ele>963</ele>
        <time>2018-02-24T11:43:28Z</time>
      </trkpt>
      <trkpt lat="46.50727" lon="5.84846">
        <ele>975</ele>
        <time>2018-02-24T11:44:28Z</time>
      </trkpt>
      <trkpt lat="46.50672" lon="5.84821">
        <ele>976</ele>
        <time>2018-02-24T11:45:28Z</time>
      </trkpt>
      <trkpt lat="46.50606" lon="5.84917">
        <ele>969</ele>
        <time>2018-02-24T11:46:28Z</time>
      </trkpt>
      <trkpt lat="46.50578" lon="5.84872">
        <ele>973</ele>
        <time>2018-02-24T11:47:28Z</time>
      </trkpt>
      <trkpt lat="46.50542" lon="5.84848">
        <ele>975</ele>
        <time>2018-02-24T11:48:28Z</time>
      </trkpt>
      <trkpt lat="46.50492" lon="5.84791">
        <ele>977</ele>
        <time>2018-02-24T11:49:28Z</time>
      </trkpt>
      <trkpt lat="46.50449" lon="5.84741">
        <ele>975</ele>
        <time>2018-02-24T11:50:28Z</time>
      </trkpt>
      <trkpt lat="46.50386" lon="5.84715">
        <ele>966</ele>
        <time>2018-02-24T11:51:28Z</time>
      </trkpt>
      <trkpt lat="46.50325" lon="5.84698">
        <ele>954</ele>
        <time>2018-02-24T11:52:28Z</time>
      </trkpt>
      <trkpt lat="46.50284" lon="5.84668">
        <ele>948</ele>
        <time>2018-02-24T11:53:28Z</time>
      </trkpt>
      <trkpt lat="46.50238" lon="5.8466">
        <ele>942</ele>
        <time>2018-02-24T11:54:28Z</time>
      </trkpt>
      <trkpt lat="46.50204" lon="5.84696">
        <ele>940</ele>
        <time>2018-02-24T11:55:28Z</time>
      </trkpt>
      <trkpt lat="46.50189" lon="5.84621">
        <ele>943</ele>
        <time>2018-02-24T11:56:28Z</time>
      </trkpt>
      <trkpt lat="46.50248" lon="5.84563">
        <ele>932</ele>
        <time>2018-02-24T11:57:28Z</time>
      </trkpt>
      <trkpt lat="46.50276" lon="5.8452">
        <ele>928</ele>
        <time>2018-02-24T11:58:28Z</time>
      </trkpt>
      <trkpt lat="46.50273" lon="5.8446">
        <ele>917</ele>
        <time>2018-02-24T11:59:28Z</time>
      </trkpt>
      <trkpt lat="46.50307" lon="5.84398">
        <ele>908</ele>
        <time>2018-02-24T12:00:28Z</time>
      </trkpt>
      <trkpt lat="46.50347" lon="5.84338">
        <ele>896</ele>
        <time>2018-02-24T12:01:28Z</time>
      </trkpt>
      <trkpt lat="46.50402" lon="5.842">
        <ele>886</ele>
        <time>2018-02-24T12:02:28Z</time>
      </trkpt>
      <trkpt lat="46.50439" lon="5.84115">
        <ele>884</ele>
        <time>2018-02-24T12:03:28Z</time>
      </trkpt>
      <trkpt lat="46.50514" lon="5.8414">
        <ele>885</ele>
        <time>2018-02-24T12:04:28Z</time>
      </trkpt>
      <trkpt lat="46.50604" lon="5.84168">
        <ele>886</ele>
        <time>2018-02-24T12:05:28Z</time>
      </trkpt>
      <trkpt lat="46.50676" lon="5.84158">
        <ele>888</ele>
        <time>2018-02-24T12:06:28Z</time>
      </trkpt>
      <trkpt lat="46.50793" lon="5.84269">
        <ele>884</ele>
        <time>2018-02-24T12:07:28Z</time>
      </trkpt>
      <trkpt lat="46.50888" lon="5.8437">
        <ele>885</ele>
        <time>2018-02-24T12:08:28Z</time>
      </trkpt>
      <trkpt lat="46.50938" lon="5.84243">
        <ele>897</ele>
        <time>2018-02-24T12:09:28Z</time>
      </trkpt>
      <trkpt lat="46.50945" lon="5.84123">
        <ele>902</ele>
        <time>2018-02-24T12:10:28Z</time>
      </trkpt>
      <trkpt lat="46.50982" lon="5.84035">
        <ele>905</ele>
        <time>2018-02-24T12:11:28Z</time>
      </trkpt>
      <trkpt lat="46.51028" lon="5.83932">
        <ele>907</ele>
        <time>2018-02-24T12:12:28Z</time>
      </trkpt>
      <trkpt lat="46.51056" lon="5.83947">
        <ele>908</ele>
        <time>2018-02-24T12:13:28Z</time>
      </trkpt>
      <trkpt lat="46.51087" lon="5.83929">
        <ele>909</ele>
        <time>2018-02-24T12:14:28Z</time>
      </trkpt>
    </trkseg>
  </trk>
</gpx>